This is the latest recevied weather packets stored in our database for station/object KE4EST. If no packets are shown the sender has not sent any weather packets the latest 10 day(s).
| Time | Temp. | Humidity | Pressure | Rain* | Wind** | Luminosity | Snow |
|---|---|---|---|---|---|---|---|
| 1778100224 | 18.33° C | 99% | 1014.3 hPa | 3.05 mm | - | 48 W/m² | - |
| 1778099921 | 18.33° C | 99% | 1014.2 hPa | 7.11 mm | - | 92 W/m² | - |
| 1778099618 | 17.78° C | 99% | 1013.9 hPa | 13.72 mm | - | 91 W/m² | - |
| 1778099315 | 17.78° C | 99% | 1014.5 hPa | 11.94 mm | - | 17 W/m² | - |
| 1778099012 | 17.78° C | 99% | 1014.4 hPa | 6.6 mm | - | 8 W/m² | - |
| 1778098708 | 17.78° C | 99% | 1014.7 hPa | 3.05 mm | - | 11 W/m² | - |
| 1778098406 | 17.78° C | 99% | 1014.1 hPa | 4.32 mm | - | 30 W/m² | - |
| 1778098103 | 17.78° C | 99% | 1013.7 hPa | 10.67 mm | - | 26 W/m² | - |
| 1778097799 | 17.78° C | 99% | 1014.2 hPa | 15.49 mm | - | 11 W/m² | - |
| 1778097495 | 17.78° C | 99% | 1014.6 hPa | 10.67 mm | - | 7 W/m² | - |
| 1778097192 | 17.78° C | 99% | 1014.7 hPa | 6.1 mm | - | 4 W/m² | - |
| 1778096889 | 17.78° C | 99% | 1014.6 hPa | 4.32 mm | - | 7 W/m² | - |
| 1778096586 | 17.78° C | 99% | 1014.4 hPa | 3.05 mm | - | 13 W/m² | - |
| 1778096284 | 18.33° C | 99% | 1014.8 hPa | 4.83 mm | - | 10 W/m² | - |
| 1778095980 | 18.33° C | 99% | 1014.3 hPa | 7.87 mm | - | 30 W/m² | - |
| 1778095676 | 17.78° C | 99% | 1014.3 hPa | 6.1 mm | - | 32 W/m² | - |
| 1778095373 | 18.33° C | 99% | 1014.5 hPa | 3.05 mm | - | 27 W/m² | - |
| 1778095070 | 18.33° C | 98% | 1014.9 hPa | 6.1 mm | - | 30 W/m² | - |
| 1778094766 | 18.33° C | 98% | 1015 hPa | 7.11 mm | - | 39 W/m² | - |
| 1778094464 | 18.33° C | 98% | 1015.4 hPa | 10.67 mm | - | 24 W/m² | - |
| 1778094160 | 18.33° C | 98% | 1015.5 hPa | 9.65 mm | - | 13 W/m² | - |
| 1778093857 | 18.89° C | 97% | 1015.1 hPa | 1.78 mm | - | 52 W/m² | - |
| 1778093554 | 18.89° C | 96% | 1015.5 hPa | 0 mm | - | 20 W/m² | - |
| 1778093251 | 18.89° C | 96% | 1015.4 hPa | 0 mm | - | 29 W/m² | - |
| 1778092948 | 18.89° C | 95% | 1015.4 hPa | 0 mm | - | 23 W/m² | - |
* Rain latest hour (hover to see other rain measurements)
** Current wind speed in m/s (hover to see current wind gust speed)